sensor_id;sensor_type;location;lat;lon;timestamp;P1;durP1;ratioP1;P2;durP2;ratioP2
50104;SDS011;47690;39.202;-77.198;2022-08-19T00:03:34;1.85;;;1.73;;
50104;SDS011;47690;39.202;-77.198;2022-08-19T00:06:55;1.50;;;1.40;;
50104;SDS011;47690;39.202;-77.198;2022-08-19T00:13:02;1.55;;;1.45;;
50104;SDS011;47690;39.202;-77.198;2022-08-19T00:16:24;1.50;;;1.40;;
50104;SDS011;47690;39.202;-77.198;2022-08-19T00:19:17;1.50;;;1.40;;
50104;SDS011;47690;39.202;-77.198;2022-08-19T00:21:53;1.80;;;1.70;;
50104;SDS011;47690;39.202;-77.198;2022-08-19T00:25:18;1.70;;;1.60;;
50104;SDS011;47690;39.202;-77.198;2022-08-19T00:28:11;1.40;;;1.30;;
50104;SDS011;47690;39.202;-77.198;2022-08-19T00:31:34;1.50;;;1.40;;
50104;SDS011;47690;39.202;-77.198;2022-08-19T00:34:27;1.70;;;1.60;;
50104;SDS011;47690;39.202;-77.198;2022-08-19T00:37:38;1.48;;;1.35;;
50104;SDS011;47690;39.202;-77.198;2022-08-19T00:40:25;1.70;;;1.60;;
50104;SDS011;47690;39.202;-77.198;2022-08-19T00:43:12;1.83;;;1.73;;
50104;SDS011;47690;39.202;-77.198;2022-08-19T00:46:22;1.73;;;1.60;;
50104;SDS011;47690;39.202;-77.198;2022-08-19T00:53:18;1.50;;;1.40;;
50104;SDS011;47690;39.202;-77.198;2022-08-19T00:56:37;1.80;;;1.70;;
50104;SDS011;47690;39.202;-77.198;2022-08-19T00:59:28;1.70;;;1.60;;
50104;SDS011;47690;39.202;-77.198;2022-08-19T01:03:10;3.20;;;1.70;;
50104;SDS011;47690;39.202;-77.198;2022-08-19T01:06:35;1.23;;;1.20;;
50104;SDS011;47690;39.202;-77.198;2022-08-19T01:09:23;3.47;;;1.65;;
50104;SDS011;47690;39.202;-77.198;2022-08-19T01:12:06;1.60;;;1.50;;
50104;SDS011;47690;39.202;-77.198;2022-08-19T01:15:16;1.80;;;1.60;;
50104;SDS011;47690;39.202;-77.198;2022-08-19T01:18:58;1.50;;;1.40;;
50104;SDS011;47690;39.202;-77.198;2022-08-19T01:22:25;1.58;;;1.48;;
50104;SDS011;47690;39.202;-77.198;2022-08-19T01:31:30;2.55;;;1.70;;
50104;SDS011;47690;39.202;-77.198;2022-08-19T01:34:29;1.87;;;1.40;;
50104;SDS011;47690;39.202;-77.198;2022-08-19T01:37:18;1.70;;;1.60;;
50104;SDS011;47690;39.202;-77.198;2022-08-19T01:40:03;2.20;;;1.65;;
50104;SDS011;47690;39.202;-77.198;2022-08-19T01:42:54;2.45;;;1.58;;
50104;SDS011;47690;39.202;-77.198;2022-08-19T01:45:30;1.80;;;1.70;;
50104;SDS011;47690;39.202;-77.198;2022-08-19T01:48:19;1.73;;;1.60;;
50104;SDS011;47690;39.202;-77.198;2022-08-19T01:51:10;1.92;;;1.42;;
50104;SDS011;47690;39.202;-77.198;2022-08-19T01:54:18;2.22;;;1.90;;
50104;SDS011;47690;39.202;-77.198;2022-08-19T01:57:10;1.90;;;1.70;;
50104;SDS011;47690;39.202;-77.198;2022-08-19T02:00:08;1.70;;;1.60;;
50104;SDS011;47690;39.202;-77.198;2022-08-19T02:03:22;1.88;;;1.77;;
50104;SDS011;47690;39.202;-77.198;2022-08-19T02:05:59;1.92;;;1.65;;
50104;SDS011;47690;39.202;-77.198;2022-08-19T02:08:36;2.30;;;1.73;;
50104;SDS011;47690;39.202;-77.198;2022-08-19T02:11:35;1.70;;;1.60;;
50104;SDS011;47690;39.202;-77.198;2022-08-19T02:14:33;1.80;;;1.70;;
50104;SDS011;47690;39.202;-77.198;2022-08-19T02:17:50;1.55;;;1.45;;
50104;SDS011;47690;39.202;-77.198;2022-08-19T02:20:25;2.05;;;1.85;;
50104;SDS011;47690;39.202;-77.198;2022-08-19T02:23:04;2.00;;;1.83;;
50104;SDS011;47690;39.202;-77.198;2022-08-19T02:25:54;2.13;;;1.67;;
50104;SDS011;47690;39.202;-77.198;2022-08-19T02:28:35;1.60;;;1.50;;
50104;SDS011;47690;39.202;-77.198;2022-08-19T02:32:15;1.60;;;1.50;;
50104;SDS011;47690;39.202;-77.198;2022-08-19T02:34:55;1.85;;;1.73;;
50104;SDS011;47690;39.202;-77.198;2022-08-19T02:38:00;1.90;;;1.80;;
50104;SDS011;47690;39.202;-77.198;2022-08-19T02:41:04;2.17;;;1.73;;
50104;SDS011;47690;39.202;-77.198;2022-08-19T02:44:04;2.00;;;1.85;;
50104;SDS011;47690;39.202;-77.198;2022-08-19T02:47:07;1.30;;;1.25;;
50104;SDS011;47690;39.202;-77.198;2022-08-19T02:49:58;1.63;;;1.52;;
50104;SDS011;47690;39.202;-77.198;2022-08-19T02:52:36;2.13;;;1.73;;
50104;SDS011;47690;39.202;-77.198;2022-08-19T02:55:24;2.85;;;1.80;;
50104;SDS011;47690;39.202;-77.198;2022-08-19T02:57:58;1.77;;;1.67;;
50104;SDS011;47690;39.202;-77.198;2022-08-19T03:04:20;1.80;;;1.52;;
50104;SDS011;47690;39.202;-77.198;2022-08-19T03:07:58;2.53;;;1.73;;
50104;SDS011;47690;39.202;-77.198;2022-08-19T03:11:04;3.50;;;1.70;;
50104;SDS011;47690;39.202;-77.198;2022-08-19T03:13:57;2.58;;;1.70;;
50104;SDS011;47690;39.202;-77.198;2022-08-19T03:16:51;1.90;;;1.80;;
50104;SDS011;47690;39.202;-77.198;2022-08-19T03:19:54;1.80;;;1.70;;
50104;SDS011;47690;39.202;-77.198;2022-08-19T03:23:37;1.75;;;1.65;;
50104;SDS011;47690;39.202;-77.198;2022-08-19T03:30:19;1.40;;;1.35;;
50104;SDS011;47690;39.202;-77.198;2022-08-19T03:32:52;2.10;;;1.70;;
50104;SDS011;47690;39.202;-77.198;2022-08-19T03:35:59;1.92;;;1.67;;
50104;SDS011;47690;39.202;-77.198;2022-08-19T03:39:07;1.55;;;1.45;;
50104;SDS011;47690;39.202;-77.198;2022-08-19T03:42:12;1.88;;;1.70;;
50104;SDS011;47690;39.202;-77.198;2022-08-19T03:46:05;3.38;;;1.58;;
50104;SDS011;47690;39.202;-77.198;2022-08-19T03:49:02;1.83;;;1.73;;
50104;SDS011;47690;39.202;-77.198;2022-08-19T03:52:27;1.83;;;1.73;;
50104;SDS011;47690;39.202;-77.198;2022-08-19T03:55:18;1.60;;;1.50;;
50104;SDS011;47690;39.202;-77.198;2022-08-19T03:58:35;2.47;;;1.48;;
50104;SDS011;47690;39.202;-77.198;2022-08-19T04:01:39;2.13;;;1.52;;
50104;SDS011;47690;39.202;-77.198;2022-08-19T04:07:46;1.83;;;1.52;;
50104;SDS011;47690;39.202;-77.198;2022-08-19T04:10:29;1.90;;;1.70;;
50104;SDS011;47690;39.202;-77.198;2022-08-19T04:13:16;2.03;;;1.60;;
50104;SDS011;47690;39.202;-77.198;2022-08-19T04:16:06;1.70;;;1.60;;
50104;SDS011;47690;39.202;-77.198;2022-08-19T04:19:03;1.67;;;1.58;;
50104;SDS011;47690;39.202;-77.198;2022-08-19T04:21:48;1.50;;;1.40;;
50104;SDS011;47690;39.202;-77.198;2022-08-19T04:28:10;2.13;;;1.50;;
50104;SDS011;47690;39.202;-77.198;2022-08-19T04:31:03;2.03;;;1.45;;
50104;SDS011;47690;39.202;-77.198;2022-08-19T04:33:56;1.67;;;1.58;;
50104;SDS011;47690;39.202;-77.198;2022-08-19T04:37:04;2.05;;;1.45;;
50104;SDS011;47690;39.202;-77.198;2022-08-19T04:40:50;1.70;;;1.60;;
50104;SDS011;47690;39.202;-77.198;2022-08-19T04:44:19;1.38;;;1.27;;
50104;SDS011;47690;39.202;-77.198;2022-08-19T04:46:59;1.55;;;1.45;;
50104;SDS011;47690;39.202;-77.198;2022-08-19T04:50:20;1.67;;;1.58;;
50104;SDS011;47690;39.202;-77.198;2022-08-19T04:53:18;1.73;;;1.63;;
50104;SDS011;47690;39.202;-77.198;2022-08-19T04:56:10;1.90;;;1.80;;
50104;SDS011;47690;39.202;-77.198;2022-08-19T04:59:36;1.60;;;1.50;;
50104;SDS011;47690;39.202;-77.198;2022-08-19T05:02:20;1.73;;;1.63;;
50104;SDS011;47690;39.202;-77.198;2022-08-19T05:05:06;2.05;;;1.50;;
50104;SDS011;47690;39.202;-77.198;2022-08-19T05:07:47;3.95;;;1.70;;
50104;SDS011;47690;39.202;-77.198;2022-08-19T05:10:19;2.70;;;1.80;;
50104;SDS011;47690;39.202;-77.198;2022-08-19T05:13:30;1.65;;;1.55;;
50104;SDS011;47690;39.202;-77.198;2022-08-19T05:16:38;1.60;;;1.50;;
50104;SDS011;47690;39.202;-77.198;2022-08-19T05:19:50;1.42;;;1.38;;
50104;SDS011;47690;39.202;-77.198;2022-08-19T05:23:26;1.70;;;1.45;;
50104;SDS011;47690;39.202;-77.198;2022-08-19T05:29:39;2.75;;;1.58;;
50104;SDS011;47690;39.202;-77.198;2022-08-19T05:32:24;1.70;;;1.60;;
50104;SDS011;47690;39.202;-77.198;2022-08-19T05:35:15;1.90;;;1.80;;
50104;SDS011;47690;39.202;-77.198;2022-08-19T05:38:02;2.15;;;1.95;;
50104;SDS011;47690;39.202;-77.198;2022-08-19T05:40:47;1.90;;;1.80;;
50104;SDS011;47690;39.202;-77.198;2022-08-19T05:43:49;2.30;;;1.77;;
50104;SDS011;47690;39.202;-77.198;2022-08-19T05:46:50;2.22;;;1.52;;
50104;SDS011;47690;39.202;-77.198;2022-08-19T05:53:06;1.40;;;1.30;;
50104;SDS011;47690;39.202;-77.198;2022-08-19T05:56:09;1.90;;;1.77;;
50104;SDS011;47690;39.202;-77.198;2022-08-19T05:59:02;1.60;;;1.50;;
50104;SDS011;47690;39.202;-77.198;2022-08-19T06:02:07;1.60;;;1.50;;
50104;SDS011;47690;39.202;-77.198;2022-08-19T06:04:55;1.80;;;1.70;;
50104;SDS011;47690;39.202;-77.198;2022-08-19T06:10:22;1.50;;;1.40;;
50104;SDS011;47690;39.202;-77.198;2022-08-19T06:13:06;1.63;;;1.52;;
50104;SDS011;47690;39.202;-77.198;2022-08-19T06:15:58;2.03;;;1.50;;
50104;SDS011;47690;39.202;-77.198;2022-08-19T06:18:51;1.75;;;1.65;;
50104;SDS011;47690;39.202;-77.198;2022-08-19T06:21:28;1.80;;;1.70;;
50104;SDS011;47690;39.202;-77.198;2022-08-19T06:25:02;1.73;;;1.63;;
50104;SDS011;47690;39.202;-77.198;2022-08-19T06:27:50;2.00;;;1.80;;
50104;SDS011;47690;39.202;-77.198;2022-08-19T06:30:47;1.92;;;1.73;;
50104;SDS011;47690;39.202;-77.198;2022-08-19T06:38:22;2.70;;;1.67;;
50104;SDS011;47690;39.202;-77.198;2022-08-19T06:46:03;1.67;;;1.58;;
50104;SDS011;47690;39.202;-77.198;2022-08-19T06:49:02;1.70;;;1.60;;
50104;SDS011;47690;39.202;-77.198;2022-08-19T06:51:59;1.67;;;1.58;;
50104;SDS011;47690;39.202;-77.198;2022-08-19T06:55:04;2.10;;;1.52;;
50104;SDS011;47690;39.202;-77.198;2022-08-19T06:57:35;1.80;;;1.70;;
50104;SDS011;47690;39.202;-77.198;2022-08-19T07:00:18;1.85;;;1.75;;
50104;SDS011;47690;39.202;-77.198;2022-08-19T07:02:53;2.00;;;1.80;;
50104;SDS011;47690;39.202;-77.198;2022-08-19T07:05:39;1.85;;;1.67;;
50104;SDS011;47690;39.202;-77.198;2022-08-19T07:12:14;2.05;;;1.70;;
50104;SDS011;47690;39.202;-77.198;2022-08-19T07:15:54;2.15;;;1.98;;
50104;SDS011;47690;39.202;-77.198;2022-08-19T07:18:43;1.63;;;1.52;;
50104;SDS011;47690;39.202;-77.198;2022-08-19T07:22:04;1.70;;;1.60;;
50104;SDS011;47690;39.202;-77.198;2022-08-19T07:25:06;1.90;;;1.77;;
50104;SDS011;47690;39.202;-77.198;2022-08-19T07:31:03;1.80;;;1.70;;
50104;SDS011;47690;39.202;-77.198;2022-08-19T07:33:46;2.30;;;1.80;;
50104;SDS011;47690;39.202;-77.198;2022-08-19T07:36:28;1.70;;;1.60;;
50104;SDS011;47690;39.202;-77.198;2022-08-19T07:39:13;1.92;;;1.83;;
50104;SDS011;47690;39.202;-77.198;2022-08-19T07:42:07;2.40;;;1.60;;
50104;SDS011;47690;39.202;-77.198;2022-08-19T07:44:54;1.90;;;1.80;;
50104;SDS011;47690;39.202;-77.198;2022-08-19T07:47:35;2.10;;;1.90;;
50104;SDS011;47690;39.202;-77.198;2022-08-19T07:50:20;1.77;;;1.67;;
50104;SDS011;47690;39.202;-77.198;2022-08-19T07:58:55;2.58;;;1.80;;
50104;SDS011;47690;39.202;-77.198;2022-08-19T08:01:53;4.93;;;2.00;;
50104;SDS011;47690;39.202;-77.198;2022-08-19T08:05:02;1.83;;;1.70;;
50104;SDS011;47690;39.202;-77.198;2022-08-19T08:07:50;1.60;;;1.50;;
50104;SDS011;47690;39.202;-77.198;2022-08-19T08:11:11;2.15;;;1.80;;
50104;SDS011;47690;39.202;-77.198;2022-08-19T08:13:48;2.28;;;1.90;;
50104;SDS011;47690;39.202;-77.198;2022-08-19T08:16:39;1.90;;;1.80;;
50104;SDS011;47690;39.202;-77.198;2022-08-19T08:20:24;2.05;;;1.88;;
50104;SDS011;47690;39.202;-77.198;2022-08-19T08:23:03;1.92;;;1.73;;
50104;SDS011;47690;39.202;-77.198;2022-08-19T08:26:04;1.90;;;1.80;;
50104;SDS011;47690;39.202;-77.198;2022-08-19T08:28:34;1.80;;;1.70;;
50104;SDS011;47690;39.202;-77.198;2022-08-19T08:31:27;1.80;;;1.70;;
50104;SDS011;47690;39.202;-77.198;2022-08-19T08:34:16;2.25;;;1.77;;
50104;SDS011;47690;39.202;-77.198;2022-08-19T08:37:24;1.70;;;1.60;;
50104;SDS011;47690;39.202;-77.198;2022-08-19T08:40:09;1.67;;;1.58;;
50104;SDS011;47690;39.202;-77.198;2022-08-19T08:46:30;1.90;;;1.80;;
50104;SDS011;47690;39.202;-77.198;2022-08-19T08:52:31;1.70;;;1.60;;
50104;SDS011;47690;39.202;-77.198;2022-08-19T08:55:20;1.90;;;1.80;;
50104;SDS011;47690;39.202;-77.198;2022-08-19T08:58:31;1.70;;;1.60;;
50104;SDS011;47690;39.202;-77.198;2022-08-19T09:01:28;1.88;;;1.73;;
50104;SDS011;47690;39.202;-77.198;2022-08-19T09:04:46;3.17;;;1.70;;
50104;SDS011;47690;39.202;-77.198;2022-08-19T09:11:05;2.38;;;1.52;;
50104;SDS011;47690;39.202;-77.198;2022-08-19T09:14:30;1.77;;;1.67;;
50104;SDS011;47690;39.202;-77.198;2022-08-19T09:18:16;1.70;;;1.60;;
50104;SDS011;47690;39.202;-77.198;2022-08-19T09:20:50;1.65;;;1.55;;
50104;SDS011;47690;39.202;-77.198;2022-08-19T09:23:32;2.13;;;1.83;;
50104;SDS011;47690;39.202;-77.198;2022-08-19T09:26:08;1.90;;;1.70;;
50104;SDS011;47690;39.202;-77.198;2022-08-19T09:32:32;6.18;;;2.20;;
50104;SDS011;47690;39.202;-77.198;2022-08-19T09:35:43;1.90;;;1.80;;
50104;SDS011;47690;39.202;-77.198;2022-08-19T09:38:30;2.10;;;1.73;;
50104;SDS011;47690;39.202;-77.198;2022-08-19T09:41:02;2.08;;;1.88;;
50104;SDS011;47690;39.202;-77.198;2022-08-19T09:43:47;1.80;;;1.70;;
50104;SDS011;47690;39.202;-77.198;2022-08-19T09:46:27;1.80;;;1.70;;
50104;SDS011;47690;39.202;-77.198;2022-08-19T09:49:28;1.88;;;1.75;;
50104;SDS011;47690;39.202;-77.198;2022-08-19T09:52:30;2.00;;;1.90;;
50104;SDS011;47690;39.202;-77.198;2022-08-19T09:56:40;2.33;;;1.90;;
50104;SDS011;47690;39.202;-77.198;2022-08-19T09:59:18;2.10;;;1.90;;
50104;SDS011;47690;39.202;-77.198;2022-08-19T10:02:10;2.45;;;1.50;;
50104;SDS011;47690;39.202;-77.198;2022-08-19T10:05:24;1.73;;;1.63;;
50104;SDS011;47690;39.202;-77.198;2022-08-19T10:09:00;1.77;;;1.67;;
50104;SDS011;47690;39.202;-77.198;2022-08-19T10:12:22;1.40;;;1.30;;
50104;SDS011;47690;39.202;-77.198;2022-08-19T10:15:07;1.85;;;1.65;;
50104;SDS011;47690;39.202;-77.198;2022-08-19T10:17:55;1.65;;;1.55;;
50104;SDS011;47690;39.202;-77.198;2022-08-19T10:20:51;1.80;;;1.70;;
50104;SDS011;47690;39.202;-77.198;2022-08-19T10:24:04;2.33;;;1.77;;
50104;SDS011;47690;39.202;-77.198;2022-08-19T10:30:14;2.00;;;1.75;;
50104;SDS011;47690;39.202;-77.198;2022-08-19T10:33:07;1.73;;;1.63;;
50104;SDS011;47690;39.202;-77.198;2022-08-19T10:35:57;1.83;;;1.70;;
50104;SDS011;47690;39.202;-77.198;2022-08-19T10:42:55;1.95;;;1.77;;
50104;SDS011;47690;39.202;-77.198;2022-08-19T10:46:51;4.32;;;1.65;;
50104;SDS011;47690;39.202;-77.198;2022-08-19T10:54:10;1.95;;;1.65;;
50104;SDS011;47690;39.202;-77.198;2022-08-19T10:58:22;3.92;;;1.70;;
50104;SDS011;47690;39.202;-77.198;2022-08-19T11:01:31;1.70;;;1.50;;
50104;SDS011;47690;39.202;-77.198;2022-08-19T11:05:05;1.80;;;1.70;;
50104;SDS011;47690;39.202;-77.198;2022-08-19T11:07:58;1.95;;;1.85;;
50104;SDS011;47690;39.202;-77.198;2022-08-19T11:11:26;1.80;;;1.70;;
50104;SDS011;47690;39.202;-77.198;2022-08-19T11:14:41;1.80;;;1.70;;
50104;SDS011;47690;39.202;-77.198;2022-08-19T11:17:37;1.73;;;1.63;;
50104;SDS011;47690;39.202;-77.198;2022-08-19T11:20:35;3.03;;;1.80;;
50104;SDS011;47690;39.202;-77.198;2022-08-19T11:23:39;2.22;;;1.80;;
50104;SDS011;47690;39.202;-77.198;2022-08-19T11:27:00;2.38;;;2.10;;
50104;SDS011;47690;39.202;-77.198;2022-08-19T11:30:16;2.45;;;1.90;;
50104;SDS011;47690;39.202;-77.198;2022-08-19T11:39:41;2.10;;;1.90;;
50104;SDS011;47690;39.202;-77.198;2022-08-19T11:43:31;2.35;;;1.90;;
50104;SDS011;47690;39.202;-77.198;2022-08-19T11:46:43;2.00;;;1.90;;
50104;SDS011;47690;39.202;-77.198;2022-08-19T11:49:51;2.13;;;1.55;;
50104;SDS011;47690;39.202;-77.198;2022-08-19T11:52:28;2.55;;;2.10;;
50104;SDS011;47690;39.202;-77.198;2022-08-19T11:55:29;2.92;;;1.98;;
50104;SDS011;47690;39.202;-77.198;2022-08-19T11:58:14;2.20;;;2.00;;
50104;SDS011;47690;39.202;-77.198;2022-08-19T12:00:56;2.63;;;2.30;;
50104;SDS011;47690;39.202;-77.198;2022-08-19T12:03:34;1.88;;;1.77;;
50104;SDS011;47690;39.202;-77.198;2022-08-19T12:06:18;3.30;;;1.90;;
50104;SDS011;47690;39.202;-77.198;2022-08-19T12:09:04;1.80;;;1.70;;
50104;SDS011;47690;39.202;-77.198;2022-08-19T12:11:40;1.90;;;1.80;;
50104;SDS011;47690;39.202;-77.198;2022-08-19T12:14:15;2.60;;;1.90;;
50104;SDS011;47690;39.202;-77.198;2022-08-19T12:16:46;2.30;;;2.10;;
50104;SDS011;47690;39.202;-77.198;2022-08-19T12:19:19;2.13;;;1.90;;
50104;SDS011;47690;39.202;-77.198;2022-08-19T12:21:58;2.20;;;2.00;;
50104;SDS011;47690;39.202;-77.198;2022-08-19T12:24:32;2.40;;;2.20;;
50104;SDS011;47690;39.202;-77.198;2022-08-19T12:27:22;2.42;;;2.22;;
50104;SDS011;47690;39.202;-77.198;2022-08-19T12:31:08;2.30;;;2.10;;
50104;SDS011;47690;39.202;-77.198;2022-08-19T12:36:09;2.30;;;2.10;;
50104;SDS011;47690;39.202;-77.198;2022-08-19T12:39:51;2.30;;;2.10;;
50104;SDS011;47690;39.202;-77.198;2022-08-19T12:42:20;2.17;;;1.98;;
50104;SDS011;47690;39.202;-77.198;2022-08-19T12:44:51;2.65;;;2.40;;
50104;SDS011;47690;39.202;-77.198;2022-08-19T12:47:26;2.67;;;2.47;;
50104;SDS011;47690;39.202;-77.198;2022-08-19T12:49:59;2.42;;;2.22;;
50104;SDS011;47690;39.202;-77.198;2022-08-19T12:52:38;2.65;;;2.40;;
50104;SDS011;47690;39.202;-77.198;2022-08-19T12:55:18;2.60;;;2.40;;
50104;SDS011;47690;39.202;-77.198;2022-08-19T12:57:51;2.58;;;2.38;;
50104;SDS011;47690;39.202;-77.198;2022-08-19T13:00:23;2.65;;;2.45;;
50104;SDS011;47690;39.202;-77.198;2022-08-19T13:02:52;2.53;;;2.33;;
50104;SDS011;47690;39.202;-77.198;2022-08-19T13:05:30;2.30;;;2.10;;
50104;SDS011;47690;39.202;-77.198;2022-08-19T13:07:59;3.63;;;2.50;;
50104;SDS011;47690;39.202;-77.198;2022-08-19T13:10:30;2.53;;;2.33;;
50104;SDS011;47690;39.202;-77.198;2022-08-19T13:13:05;2.53;;;2.33;;
50104;SDS011;47690;39.202;-77.198;2022-08-19T13:15:35;2.38;;;2.17;;
50104;SDS011;47690;39.202;-77.198;2022-08-19T13:18:05;2.95;;;2.33;;
50104;SDS011;47690;39.202;-77.198;2022-08-19T13:20:36;2.60;;;2.40;;
50104;SDS011;47690;39.202;-77.198;2022-08-19T13:23:21;2.45;;;2.25;;
50104;SDS011;47690;39.202;-77.198;2022-08-19T13:26:09;2.50;;;2.30;;
50104;SDS011;47690;39.202;-77.198;2022-08-19T13:28:45;2.58;;;2.38;;
50104;SDS011;47690;39.202;-77.198;2022-08-19T13:31:36;2.58;;;2.38;;
50104;SDS011;47690;39.202;-77.198;2022-08-19T13:34:32;2.50;;;2.30;;
50104;SDS011;47690;39.202;-77.198;2022-08-19T13:37:04;2.50;;;2.30;;
50104;SDS011;47690;39.202;-77.198;2022-08-19T13:39:35;2.50;;;2.30;;
50104;SDS011;47690;39.202;-77.198;2022-08-19T13:42:05;2.70;;;2.50;;
50104;SDS011;47690;39.202;-77.198;2022-08-19T13:44:36;2.55;;;2.35;;
50104;SDS011;47690;39.202;-77.198;2022-08-19T13:47:10;2.60;;;2.40;;
50104;SDS011;47690;39.202;-77.198;2022-08-19T13:52:14;2.47;;;2.28;;
50104;SDS011;47690;39.202;-77.198;2022-08-19T13:54:43;2.50;;;2.28;;
50104;SDS011;47690;39.202;-77.198;2022-08-19T13:57:13;2.85;;;2.40;;
50104;SDS011;47690;39.202;-77.198;2022-08-19T13:59:45;2.72;;;2.50;;
50104;SDS011;47690;39.202;-77.198;2022-08-19T14:02:14;2.50;;;2.30;;
50104;SDS011;47690;39.202;-77.198;2022-08-19T14:04:43;2.40;;;2.20;;
50104;SDS011;47690;39.202;-77.198;2022-08-19T14:07:15;2.60;;;2.40;;
50104;SDS011;47690;39.202;-77.198;2022-08-19T14:09:46;2.60;;;2.35;;
50104;SDS011;47690;39.202;-77.198;2022-08-19T14:12:22;2.78;;;2.40;;
50104;SDS011;47690;39.202;-77.198;2022-08-19T14:14:56;2.40;;;2.20;;
50104;SDS011;47690;39.202;-77.198;2022-08-19T14:17:27;2.80;;;2.60;;
50104;SDS011;47690;39.202;-77.198;2022-08-19T14:19:59;2.88;;;2.50;;
50104;SDS011;47690;39.202;-77.198;2022-08-19T14:22:40;2.97;;;2.50;;
50104;SDS011;47690;39.202;-77.198;2022-08-19T14:25:13;2.80;;;2.50;;
50104;SDS011;47690;39.202;-77.198;2022-08-19T14:27:47;3.22;;;2.47;;
50104;SDS011;47690;39.202;-77.198;2022-08-19T14:30:26;2.70;;;2.50;;
50104;SDS011;47690;39.202;-77.198;2022-08-19T14:32:58;2.50;;;2.30;;
50104;SDS011;47690;39.202;-77.198;2022-08-19T14:35:28;2.50;;;2.30;;
50104;SDS011;47690;39.202;-77.198;2022-08-19T14:37:58;3.13;;;2.40;;
50104;SDS011;47690;39.202;-77.198;2022-08-19T14:40:28;2.50;;;2.25;;
50104;SDS011;47690;39.202;-77.198;2022-08-19T14:43:01;2.50;;;2.30;;
50104;SDS011;47690;39.202;-77.198;2022-08-19T14:45:32;2.50;;;2.30;;
50104;SDS011;47690;39.202;-77.198;2022-08-19T14:48:04;2.60;;;2.40;;
50104;SDS011;47690;39.202;-77.198;2022-08-19T14:50:40;2.70;;;2.50;;
50104;SDS011;47690;39.202;-77.198;2022-08-19T14:53:15;2.65;;;2.45;;
50104;SDS011;47690;39.202;-77.198;2022-08-19T14:55:47;2.70;;;2.50;;
50104;SDS011;47690;39.202;-77.198;2022-08-19T14:58:18;2.63;;;2.40;;
50104;SDS011;47690;39.202;-77.198;2022-08-19T15:00:57;2.85;;;2.50;;
50104;SDS011;47690;39.202;-77.198;2022-08-19T15:03:27;2.80;;;2.60;;
50104;SDS011;47690;39.202;-77.198;2022-08-19T15:06:00;3.63;;;2.42;;
50104;SDS011;47690;39.202;-77.198;2022-08-19T15:08:32;2.70;;;2.50;;
50104;SDS011;47690;39.202;-77.198;2022-08-19T15:11:15;2.75;;;2.55;;
50104;SDS011;47690;39.202;-77.198;2022-08-19T15:13:52;2.60;;;2.40;;
50104;SDS011;47690;39.202;-77.198;2022-08-19T15:16:22;2.97;;;2.67;;
50104;SDS011;47690;39.202;-77.198;2022-08-19T15:18:54;2.80;;;2.50;;
50104;SDS011;47690;39.202;-77.198;2022-08-19T15:21:24;2.63;;;2.42;;
50104;SDS011;47690;39.202;-77.198;2022-08-19T15:23:55;2.75;;;2.50;;
50104;SDS011;47690;39.202;-77.198;2022-08-19T15:26:25;3.58;;;2.50;;
50104;SDS011;47690;39.202;-77.198;2022-08-19T15:28:56;2.90;;;2.60;;
50104;SDS011;47690;39.202;-77.198;2022-08-19T15:31:27;3.00;;;2.45;;
50104;SDS011;47690;39.202;-77.198;2022-08-19T15:33:58;2.72;;;2.53;;
50104;SDS011;47690;39.202;-77.198;2022-08-19T15:36:28;2.90;;;2.60;;
50104;SDS011;47690;39.202;-77.198;2022-08-19T15:39:00;2.83;;;2.53;;
50104;SDS011;47690;39.202;-77.198;2022-08-19T15:41:30;2.78;;;2.30;;
50104;SDS011;47690;39.202;-77.198;2022-08-19T15:44:00;2.60;;;2.40;;
50104;SDS011;47690;39.202;-77.198;2022-08-19T15:46:34;2.77;;;2.57;;
50104;SDS011;47690;39.202;-77.198;2022-08-19T15:49:04;2.90;;;2.60;;
50104;SDS011;47690;39.202;-77.198;2022-08-19T15:51:38;2.88;;;2.58;;
50104;SDS011;47690;39.202;-77.198;2022-08-19T15:54:18;2.50;;;2.30;;
50104;SDS011;47690;39.202;-77.198;2022-08-19T15:56:49;2.53;;;2.30;;
50104;SDS011;47690;39.202;-77.198;2022-08-19T15:59:39;2.78;;;2.58;;
50104;SDS011;47690;39.202;-77.198;2022-08-19T16:02:31;2.85;;;2.60;;
50104;SDS011;47690;39.202;-77.198;2022-08-19T16:05:22;2.70;;;2.50;;
50104;SDS011;47690;39.202;-77.198;2022-08-19T16:08:12;2.83;;;2.42;;
50104;SDS011;47690;39.202;-77.198;2022-08-19T16:10:44;2.60;;;2.40;;
50104;SDS011;47690;39.202;-77.198;2022-08-19T16:13:14;2.60;;;2.40;;
50104;SDS011;47690;39.202;-77.198;2022-08-19T16:15:44;2.70;;;2.50;;
50104;SDS011;47690;39.202;-77.198;2022-08-19T16:18:17;2.63;;;2.33;;
50104;SDS011;47690;39.202;-77.198;2022-08-19T16:20:47;2.95;;;2.63;;
50104;SDS011;47690;39.202;-77.198;2022-08-19T16:23:16;2.72;;;2.47;;
50104;SDS011;47690;39.202;-77.198;2022-08-19T16:25:46;2.80;;;2.60;;
50104;SDS011;47690;39.202;-77.198;2022-08-19T16:28:23;2.67;;;2.47;;
50104;SDS011;47690;39.202;-77.198;2022-08-19T16:30:52;2.58;;;2.38;;
50104;SDS011;47690;39.202;-77.198;2022-08-19T16:33:23;2.67;;;2.47;;
50104;SDS011;47690;39.202;-77.198;2022-08-19T16:35:58;2.30;;;2.10;;
50104;SDS011;47690;39.202;-77.198;2022-08-19T16:38:37;2.67;;;2.47;;
50104;SDS011;47690;39.202;-77.198;2022-08-19T16:41:12;2.97;;;2.40;;
50104;SDS011;47690;39.202;-77.198;2022-08-19T16:43:44;2.70;;;2.50;;
50104;SDS011;47690;39.202;-77.198;2022-08-19T16:46:23;2.45;;;2.25;;
50104;SDS011;47690;39.202;-77.198;2022-08-19T16:48:53;2.58;;;2.38;;
50104;SDS011;47690;39.202;-77.198;2022-08-19T16:51:23;2.90;;;2.40;;
50104;SDS011;47690;39.202;-77.198;2022-08-19T16:53:52;2.92;;;2.55;;
50104;SDS011;47690;39.202;-77.198;2022-08-19T16:56:23;2.60;;;2.40;;
50104;SDS011;47690;39.202;-77.198;2022-08-19T16:58:53;2.40;;;2.20;;
50104;SDS011;47690;39.202;-77.198;2022-08-19T17:01:24;2.80;;;2.55;;
50104;SDS011;47690;39.202;-77.198;2022-08-19T17:03:58;3.63;;;2.30;;
50104;SDS011;47690;39.202;-77.198;2022-08-19T17:06:28;2.38;;;2.17;;
50104;SDS011;47690;39.202;-77.198;2022-08-19T17:09:00;3.65;;;2.25;;
50104;SDS011;47690;39.202;-77.198;2022-08-19T17:11:32;2.83;;;2.20;;
50104;SDS011;47690;39.202;-77.198;2022-08-19T17:14:07;4.93;;;2.60;;
50104;SDS011;47690;39.202;-77.198;2022-08-19T17:16:46;3.42;;;2.30;;
50104;SDS011;47690;39.202;-77.198;2022-08-19T17:19:15;2.58;;;2.35;;
50104;SDS011;47690;39.202;-77.198;2022-08-19T17:21:46;2.40;;;2.20;;
50104;SDS011;47690;39.202;-77.198;2022-08-19T17:24:15;2.47;;;2.22;;
50104;SDS011;47690;39.202;-77.198;2022-08-19T17:26:44;2.67;;;2.20;;
50104;SDS011;47690;39.202;-77.198;2022-08-19T17:29:15;2.60;;;2.40;;
50104;SDS011;47690;39.202;-77.198;2022-08-19T17:31:45;2.55;;;2.25;;
50104;SDS011;47690;39.202;-77.198;2022-08-19T17:34:15;3.45;;;2.17;;
50104;SDS011;47690;39.202;-77.198;2022-08-19T17:43:59;2.35;;;2.15;;
50104;SDS011;47690;39.202;-77.198;2022-08-19T17:46:28;3.05;;;2.45;;
50104;SDS011;47690;39.202;-77.198;2022-08-19T17:49:00;3.03;;;2.28;;
50104;SDS011;47690;39.202;-77.198;2022-08-19T17:54:19;2.33;;;2.13;;
50104;SDS011;47690;39.202;-77.198;2022-08-19T17:57:04;2.55;;;2.35;;
50104;SDS011;47690;39.202;-77.198;2022-08-19T17:59:43;2.83;;;2.40;;
50104;SDS011;47690;39.202;-77.198;2022-08-19T18:02:28;2.60;;;2.40;;
50104;SDS011;47690;39.202;-77.198;2022-08-19T18:06:30;2.72;;;2.25;;
50104;SDS011;47690;39.202;-77.198;2022-08-19T18:08:59;2.90;;;2.33;;
50104;SDS011;47690;39.202;-77.198;2022-08-19T18:11:28;3.75;;;2.50;;
50104;SDS011;47690;39.202;-77.198;2022-08-19T18:13:59;2.63;;;2.42;;
50104;SDS011;47690;39.202;-77.198;2022-08-19T18:16:32;2.53;;;2.33;;
50104;SDS011;47690;39.202;-77.198;2022-08-19T18:19:02;2.80;;;2.30;;
50104;SDS011;47690;39.202;-77.198;2022-08-19T18:21:32;2.90;;;2.60;;